ADDS METAR Data INFO
IDs: Format: Raw Decoded Include TAF

Data at: 0916 UTC 17 Oct 2017

KCSG 170851Z AUTO 08009G18KT 10SM CLR 14/07 A3020 RMK AO2 SLP222 T01440067 53009 $
KCSG 170751Z AUTO 08012G18KT 10SM CLR 15/07 A3018 RMK AO2 SLP217 T01500072
KCSG 170651Z AUTO 08010G19KT 10SM CLR 16/07 A3018 RMK AO2 SLP217 T01610072
KCSG 170551Z 06011KT 10SM CLR 16/08 A3017 RMK AO2 SLP213 T01610078 10189 20156 51005
KCSG 170451Z 05009KT 10SM CLR 16/07 A3017 RMK AO2 SLP212 T01560072 402390156
KCSG 170351Z 03005KT 10SM FEW044 16/07 A3016 RMK AO2 SLP211 T01560067
KCSG 170251Z 03010G16KT 10SM CLR 16/07 A3016 RMK AO2 SLP208 T01610072 51019
KCSG 170151Z 03009G18KT 10SM CLR 17/07 A3014 RMK AO2 SLP203 T01670072
KCSG 170051Z 02005KT 10SM CLR 17/09 A3013 RMK AO2 SLP199 T01720089
KCSG 162351Z 36006KT 10SM CLR 19/08 A3010 RMK AO2 SLP188 T01890083 10239 20189 53015
KCSG 162251Z 36009KT 10SM CLR 21/08 A3007 RMK AO2 SLP180 T02060083
KCSG 162151Z 02012G20KT 10SM CLR 22/07 A3006 RMK AO2 SLP176 T02220072
KCSG 162051Z 03009KT 10SM CLR 23/09 A3005 RMK AO2 SLP172 T02330089 55013
KCSG 161951Z 34010KT 10SM CLR 24/09 A3005 RMK AO2 SLP170 T02390089
KCSG 161851Z 01007KT 10SM CLR 22/11 A3006 RMK AO2 SLP177 T02170106
KCSG 161751Z 36009KT 10SM CLR 20/12 A3009 RMK AO2 SLP186 60000 T02000117 10228 20178 58007
KCSG 161723Z 36008KT 10SM SCT016 18/12 A3011 RMK AO2 T01830122
KCSG 161651Z 36006KT 10SM OVC016 18/13 A3012 RMK AO2 SLP196 T01830133
KCSG 161551Z 36011KT 10SM OVC012 19/14 A3012 RMK AO2 RAB14E30 SLP196 P0000 T01890144
KCSG 161509Z 34008KT 10SM OVC010 19/15 A3012 RMK AO2 T01940150
KCSG 161451Z 36010KT 10SM OVC007 19/16 A3011 RMK AO2 SLP194 T01940161 53028
KCSG 161424Z 02010KT 9SM OVC006 19/17 A3011 RMK AO2 T01940172
KCSG 161414Z 01011G17KT 10SM OVC008 20/17 A3010 RMK AO2 T02000172
KCSG 161351Z 03009KT 10SM OVC013 21/17 A3009 RMK AO2 SLP184 T02110172
KCSG 161251Z 36006KT 10SM OVC011 22/19 A3006 RMK AO2 SLP173 T02220194
KCSG 161233Z AUTO 35005KT 10SM BKN011 OVC080 23/19 A3004 RMK AO2 T02280194
KCSG 161151Z AUTO 36005KT 10SM FEW055 BKN100 23/19 A3003 RMK AO2 SLP164 T02280194 10233 20217 53005
KCSG 161051Z AUTO 36004KT 10SM BKN095 OVC110 23/21 A3002 RMK AO2 SLP162 T02280206
KCSG 161021Z AUTO 36005KT 10SM FEW008 OVC100 23/21 A3002 RMK AO2 T02280206
KCSG 160951Z AUTO 35003KT 10SM SCT100 23/21 A3000 RMK AO2 SLP154 T02330206
KCSG 160851Z AUTO 31003KT 10SM FEW070 23/21 A3001 RMK AO2 SLP159 T02280211 56010
KCSG 160751Z AUTO 00000KT 10SM BKN065 23/21 A3002 RMK AO2 SLP160 T02330211
KCSG 160651Z 00000KT 10SM CLR 22/21 A3003 RMK AO2 SLP164 T02220211
KCSG 160551Z 00000KT 10SM CLR 23/21 A3004 RMK AO2 SLP169 T02280211 10267 20222 56005
KCSG 160451Z 00000KT 10SM CLR 24/21 A3005 RMK AO2 SLP171 T02390211 403060200
KCSG 160351Z 00000KT 10SM SCT044 24/21 A3005 RMK AO2 SLP171 T02390211
KCSG 160251Z 00000KT 10SM BKN037 24/22 A3006 RMK AO2 SLP173 T02440217 51011
KCSG 160151Z 00000KT 10SM CLR 25/21 A3005 RMK AO2 SLP171 T02500211
KCSG 160051Z 00000KT 10SM BKN110 26/21 A3005 RMK AO2 SLP169 T02560211
KCSG 152351Z 00000KT 10SM CLR 26/21 A3003 RMK AO2 SLP163 T02560211 10306 20256 56004
KCSG 152251Z 32005KT 10SM FEW070 BKN095 29/21 A3003 RMK AO2 SLP163 T02890206
KCSG 152151Z 31004KT 10SM SCT040 SCT048 30/20 A3003 RMK AO2 SLP164 T03000200